sensor_id;sensor_type;location;lat;lon;timestamp;pressure;altitude;pressure_sealevel;temperature;humidity
9415;BME280;4746;35.664;139.738;2023-08-21T00:00:39;99978.94;;;36.48;43.44
9415;BME280;4746;35.664;139.738;2023-08-21T00:03:07;99974.13;;;36.51;43.26
9415;BME280;4746;35.664;139.738;2023-08-21T00:05:34;99978.66;;;36.59;42.76
9415;BME280;4746;35.664;139.738;2023-08-21T00:08:02;99970.53;;;36.68;42.99
9415;BME280;4746;35.664;139.738;2023-08-21T00:10:31;99982.66;;;36.88;42.71
9415;BME280;4746;35.664;139.738;2023-08-21T00:13:01;99983.09;;;37.09;42.69
9415;BME280;4746;35.664;139.738;2023-08-21T00:15:29;99975.59;;;37.20;42.54
9415;BME280;4746;35.664;139.738;2023-08-21T00:17:57;99972.50;;;37.33;42.32
9415;BME280;4746;35.664;139.738;2023-08-21T00:20:24;99969.19;;;37.39;42.21
9415;BME280;4746;35.664;139.738;2023-08-21T00:22:52;99967.53;;;37.46;41.99
9415;BME280;4746;35.664;139.738;2023-08-21T00:25:21;99968.84;;;37.50;41.38
9415;BME280;4746;35.664;139.738;2023-08-21T00:27:49;99973.34;;;37.41;41.73
9415;BME280;4746;35.664;139.738;2023-08-21T00:30:16;99968.19;;;37.63;41.83
9415;BME280;4746;35.664;139.738;2023-08-21T00:32:44;99968.75;;;37.75;41.10
9415;BME280;4746;35.664;139.738;2023-08-21T00:35:12;99974.25;;;37.81;41.42
9415;BME280;4746;35.664;139.738;2023-08-21T00:37:40;99971.94;;;37.86;41.00
9415;BME280;4746;35.664;139.738;2023-08-21T00:40:08;99971.75;;;37.80;40.94
9415;BME280;4746;35.664;139.738;2023-08-21T00:42:35;99964.22;;;37.75;40.56
9415;BME280;4746;35.664;139.738;2023-08-21T00:45:03;99955.88;;;37.86;40.62
9415;BME280;4746;35.664;139.738;2023-08-21T00:47:31;99963.69;;;37.96;40.22
9415;BME280;4746;35.664;139.738;2023-08-21T00:49:59;99956.00;;;38.09;39.90
9415;BME280;4746;35.664;139.738;2023-08-21T00:52:27;99954.34;;;38.24;40.33
9415;BME280;4746;35.664;139.738;2023-08-21T00:54:56;99948.47;;;38.36;39.73
9415;BME280;4746;35.664;139.738;2023-08-21T00:57:25;99948.59;;;38.42;39.07
9415;BME280;4746;35.664;139.738;2023-08-21T00:59:53;99939.38;;;38.53;39.33
9415;BME280;4746;35.664;139.738;2023-08-21T01:02:21;99948.72;;;38.65;39.17
9415;BME280;4746;35.664;139.738;2023-08-21T01:04:50;99936.28;;;38.80;38.80
9415;BME280;4746;35.664;139.738;2023-08-21T01:07:17;99937.41;;;38.93;39.15
9415;BME280;4746;35.664;139.738;2023-08-21T01:10:01;99937.81;;;39.12;38.68
9415;BME280;4746;35.664;139.738;2023-08-21T01:15:43;99935.69;;;39.30;38.75
9415;BME280;4746;35.664;139.738;2023-08-21T01:18:12;99935.50;;;39.62;38.07
9415;BME280;4746;35.664;139.738;2023-08-21T01:20:41;99937.09;;;39.71;37.84
9415;BME280;4746;35.664;139.738;2023-08-21T01:23:08;99924.16;;;39.74;37.60
9415;BME280;4746;35.664;139.738;2023-08-21T01:25:36;99919.13;;;39.72;37.76
9415;BME280;4746;35.664;139.738;2023-08-21T01:28:05;99921.81;;;39.72;37.92
9415;BME280;4746;35.664;139.738;2023-08-21T01:30:35;99922.97;;;39.77;38.17
9415;BME280;4746;35.664;139.738;2023-08-21T01:33:10;99919.53;;;39.83;38.29
9415;BME280;4746;35.664;139.738;2023-08-21T01:35:40;99911.50;;;39.83;38.01
9415;BME280;4746;35.664;139.738;2023-08-21T01:38:08;99912.81;;;39.87;38.20
9415;BME280;4746;35.664;139.738;2023-08-21T01:40:35;99908.78;;;40.05;38.10
9415;BME280;4746;35.664;139.738;2023-08-21T01:43:03;99912.41;;;40.12;38.26
9415;BME280;4746;35.664;139.738;2023-08-21T01:45:31;99921.59;;;40.18;38.34
9415;BME280;4746;35.664;139.738;2023-08-21T01:47:58;99909.63;;;40.20;38.26
9415;BME280;4746;35.664;139.738;2023-08-21T01:50:27;99901.53;;;40.28;38.17
9415;BME280;4746;35.664;139.738;2023-08-21T01:52:54;99911.41;;;40.28;37.89
9415;BME280;4746;35.664;139.738;2023-08-21T01:55:22;99900.84;;;40.26;37.91
9415;BME280;4746;35.664;139.738;2023-08-21T01:57:52;99910.69;;;40.34;37.74
9415;BME280;4746;35.664;139.738;2023-08-21T02:00:19;99903.94;;;40.38;37.90
9415;BME280;4746;35.664;139.738;2023-08-21T02:02:49;99904.22;;;40.43;37.57
9415;BME280;4746;35.664;139.738;2023-08-21T02:05:17;99903.81;;;40.46;37.80
9415;BME280;4746;35.664;139.738;2023-08-21T02:07:46;99897.34;;;40.54;37.59
9415;BME280;4746;35.664;139.738;2023-08-21T02:10:14;99901.06;;;40.53;37.51
9415;BME280;4746;35.664;139.738;2023-08-21T02:12:41;99900.41;;;40.51;37.31
9415;BME280;4746;35.664;139.738;2023-08-21T02:15:09;99901.50;;;40.57;37.00
9415;BME280;4746;35.664;139.738;2023-08-21T02:17:37;99896.59;;;40.60;37.02
9415;BME280;4746;35.664;139.738;2023-08-21T02:20:08;99900.13;;;40.75;36.82
9415;BME280;4746;35.664;139.738;2023-08-21T02:22:37;99895.28;;;40.85;36.47
9415;BME280;4746;35.664;139.738;2023-08-21T02:25:06;99891.19;;;40.89;36.24
9415;BME280;4746;35.664;139.738;2023-08-21T02:27:34;99901.09;;;40.89;36.10
9415;BME280;4746;35.664;139.738;2023-08-21T02:30:01;99888.72;;;40.88;36.00
9415;BME280;4746;35.664;139.738;2023-08-21T02:32:30;99892.41;;;40.87;36.29
9415;BME280;4746;35.664;139.738;2023-08-21T02:34:57;99890.34;;;40.89;35.95
9415;BME280;4746;35.664;139.738;2023-08-21T02:37:27;99888.00;;;41.00;35.80
9415;BME280;4746;35.664;139.738;2023-08-21T02:39:54;99893.31;;;41.08;35.42
9415;BME280;4746;35.664;139.738;2023-08-21T02:42:22;99881.59;;;41.16;35.28
9415;BME280;4746;35.664;139.738;2023-08-21T02:44:50;99887.88;;;41.22;35.21
9415;BME280;4746;35.664;139.738;2023-08-21T02:47:17;99893.56;;;41.34;35.04
9415;BME280;4746;35.664;139.738;2023-08-21T02:49:52;99880.16;;;41.55;34.86
9415;BME280;4746;35.664;139.738;2023-08-21T02:52:22;99876.16;;;41.72;34.81
9415;BME280;4746;35.664;139.738;2023-08-21T02:57:43;99867.53;;;41.83;34.17
9415;BME280;4746;35.664;139.738;2023-08-21T03:00:11;99880.03;;;41.90;34.23
9415;BME280;4746;35.664;139.738;2023-08-21T03:02:39;99870.78;;;41.99;34.21
9415;BME280;4746;35.664;139.738;2023-08-21T03:05:11;99864.56;;;41.98;34.51
9415;BME280;4746;35.664;139.738;2023-08-21T03:07:40;99861.31;;;42.09;34.37
9415;BME280;4746;35.664;139.738;2023-08-21T03:10:08;99865.53;;;42.18;33.88
9415;BME280;4746;35.664;139.738;2023-08-21T03:12:36;99863.56;;;42.33;34.05
9415;BME280;4746;35.664;139.738;2023-08-21T03:15:06;99861.59;;;42.55;33.76
9415;BME280;4746;35.664;139.738;2023-08-21T03:17:34;99854.63;;;42.73;33.69
9415;BME280;4746;35.664;139.738;2023-08-21T03:20:02;99849.72;;;42.83;33.39
9415;BME280;4746;35.664;139.738;2023-08-21T03:22:33;99855.75;;;42.98;32.88
9415;BME280;4746;35.664;139.738;2023-08-21T03:25:01;99851.38;;;42.97;33.07
9415;BME280;4746;35.664;139.738;2023-08-21T03:27:39;99853.69;;;43.00;33.29
9415;BME280;4746;35.664;139.738;2023-08-21T03:30:35;99851.50;;;43.23;33.51
9415;BME280;4746;35.664;139.738;2023-08-21T03:33:03;99847.16;;;43.35;33.29
9415;BME280;4746;35.664;139.738;2023-08-21T03:35:36;99836.56;;;43.59;32.93
9415;BME280;4746;35.664;139.738;2023-08-21T03:38:16;99825.53;;;43.73;32.62
9415;BME280;4746;35.664;139.738;2023-08-21T03:40:49;99831.59;;;43.82;32.48
9415;BME280;4746;35.664;139.738;2023-08-21T03:43:26;99824.53;;;43.87;32.11
9415;BME280;4746;35.664;139.738;2023-08-21T03:45:58;99820.56;;;43.90;31.93
9415;BME280;4746;35.664;139.738;2023-08-21T03:48:35;99833.25;;;43.89;32.25
9415;BME280;4746;35.664;139.738;2023-08-21T03:51:10;99826.19;;;43.95;32.36
9415;BME280;4746;35.664;139.738;2023-08-21T03:53:41;99827.00;;;43.95;31.67
9415;BME280;4746;35.664;139.738;2023-08-21T03:56:08;99828.47;;;43.91;31.95
9415;BME280;4746;35.664;139.738;2023-08-21T03:58:36;99834.91;;;43.90;32.33
9415;BME280;4746;35.664;139.738;2023-08-21T04:01:07;99823.25;;;43.96;32.03
9415;BME280;4746;35.664;139.738;2023-08-21T04:03:38;99819.91;;;44.01;32.02
9415;BME280;4746;35.664;139.738;2023-08-21T04:06:09;99814.28;;;44.02;31.94
9415;BME280;4746;35.664;139.738;2023-08-21T04:08:37;99817.00;;;44.09;31.98
9415;BME280;4746;35.664;139.738;2023-08-21T04:11:06;99825.53;;;44.18;31.74
9415;BME280;4746;35.664;139.738;2023-08-21T04:13:34;99816.34;;;44.26;31.62
9415;BME280;4746;35.664;139.738;2023-08-21T04:16:04;99820.06;;;44.25;31.84
9415;BME280;4746;35.664;139.738;2023-08-21T04:18:31;99813.41;;;44.34;32.16
9415;BME280;4746;35.664;139.738;2023-08-21T04:20:59;99816.66;;;44.49;31.73
9415;BME280;4746;35.664;139.738;2023-08-21T04:23:26;99807.91;;;44.60;31.66
9415;BME280;4746;35.664;139.738;2023-08-21T04:26:00;99799.53;;;44.68;31.53
9415;BME280;4746;35.664;139.738;2023-08-21T04:28:32;99800.16;;;44.70;31.55
9415;BME280;4746;35.664;139.738;2023-08-21T04:31:03;99797.66;;;44.68;31.83
9415;BME280;4746;35.664;139.738;2023-08-21T04:33:33;99796.94;;;44.86;31.32
9415;BME280;4746;35.664;139.738;2023-08-21T04:36:02;99798.34;;;44.94;30.46
9415;BME280;4746;35.664;139.738;2023-08-21T04:38:30;99806.28;;;44.96;31.04
9415;BME280;4746;35.664;139.738;2023-08-21T04:41:07;99799.84;;;45.21;30.95
9415;BME280;4746;35.664;139.738;2023-08-21T04:43:35;99805.69;;;45.18;30.80
9415;BME280;4746;35.664;139.738;2023-08-21T04:46:05;99791.06;;;45.26;30.43
9415;BME280;4746;35.664;139.738;2023-08-21T04:48:33;99788.47;;;45.37;30.48
9415;BME280;4746;35.664;139.738;2023-08-21T04:51:02;99792.50;;;45.53;30.32
9415;BME280;4746;35.664;139.738;2023-08-21T04:53:30;99794.09;;;45.67;29.64
9415;BME280;4746;35.664;139.738;2023-08-21T04:55:59;99780.31;;;45.86;29.97
9415;BME280;4746;35.664;139.738;2023-08-21T04:58:27;99782.19;;;45.85;29.88
9415;BME280;4746;35.664;139.738;2023-08-21T05:00:55;99780.84;;;45.94;29.92
9415;BME280;4746;35.664;139.738;2023-08-21T05:03:24;99782.38;;;46.08;29.10
9415;BME280;4746;35.664;139.738;2023-08-21T05:06:00;99774.59;;;46.30;29.38
9415;BME280;4746;35.664;139.738;2023-08-21T05:08:28;99764.09;;;46.40;28.89
9415;BME280;4746;35.664;139.738;2023-08-21T05:10:58;99779.13;;;46.53;28.44
9415;BME280;4746;35.664;139.738;2023-08-21T05:13:27;99774.44;;;46.60;28.16
9415;BME280;4746;35.664;139.738;2023-08-21T05:15:56;99775.59;;;46.53;27.60
9415;BME280;4746;35.664;139.738;2023-08-21T05:18:25;99781.22;;;46.69;27.64
9415;BME280;4746;35.664;139.738;2023-08-21T05:20:55;99782.13;;;47.22;27.02
9415;BME280;4746;35.664;139.738;2023-08-21T05:23:23;99767.72;;;47.67;26.50
9415;BME280;4746;35.664;139.738;2023-08-21T05:25:51;99762.25;;;48.13;26.06
9415;BME280;4746;35.664;139.738;2023-08-21T05:28:21;99767.34;;;48.60;25.31
9415;BME280;4746;35.664;139.738;2023-08-21T05:30:51;99768.41;;;48.87;24.90
9415;BME280;4746;35.664;139.738;2023-08-21T05:33:19;99767.63;;;49.03;24.68
9415;BME280;4746;35.664;139.738;2023-08-21T05:35:47;99768.97;;;49.17;24.25
9415;BME280;4746;35.664;139.738;2023-08-21T05:38:15;99757.22;;;49.33;23.77
9415;BME280;4746;35.664;139.738;2023-08-21T05:40:42;99755.41;;;49.22;23.87
9415;BME280;4746;35.664;139.738;2023-08-21T05:43:10;99754.28;;;49.18;24.31
9415;BME280;4746;35.664;139.738;2023-08-21T05:45:41;99744.91;;;49.46;24.21
9415;BME280;4746;35.664;139.738;2023-08-21T05:48:09;99741.19;;;49.69;23.86
9415;BME280;4746;35.664;139.738;2023-08-21T05:50:39;99753.25;;;49.56;23.73
9415;BME280;4746;35.664;139.738;2023-08-21T05:53:19;99758.16;;;49.54;24.12
9415;BME280;4746;35.664;139.738;2023-08-21T05:55:54;99742.38;;;50.37;23.25
9415;BME280;4746;35.664;139.738;2023-08-21T05:58:22;99746.63;;;52.21;20.76
9415;BME280;4746;35.664;139.738;2023-08-21T06:00:50;99746.13;;;54.12;19.04
9415;BME280;4746;35.664;139.738;2023-08-21T06:03:28;99756.19;;;55.46;17.87
9415;BME280;4746;35.664;139.738;2023-08-21T06:05:56;99759.44;;;56.47;17.33
9415;BME280;4746;35.664;139.738;2023-08-21T06:08:24;99748.88;;;57.22;16.42
9415;BME280;4746;35.664;139.738;2023-08-21T06:10:53;99753.59;;;57.80;16.13
9415;BME280;4746;35.664;139.738;2023-08-21T06:13:21;99748.53;;;58.36;15.74
9415;BME280;4746;35.664;139.738;2023-08-21T06:15:50;99747.53;;;59.03;14.94
9415;BME280;4746;35.664;139.738;2023-08-21T06:18:20;99735.56;;;59.37;15.23
9415;BME280;4746;35.664;139.738;2023-08-21T06:20:49;99734.22;;;59.95;14.71
9415;BME280;4746;35.664;139.738;2023-08-21T06:23:21;99743.31;;;60.43;14.30
9415;BME280;4746;35.664;139.738;2023-08-21T06:25:50;99738.25;;;60.62;13.92
9415;BME280;4746;35.664;139.738;2023-08-21T06:28:19;99746.56;;;60.70;14.31
9415;BME280;4746;35.664;139.738;2023-08-21T06:30:57;99742.63;;;61.05;13.78
9415;BME280;4746;35.664;139.738;2023-08-21T06:33:25;99723.63;;;61.33;13.45
9415;BME280;4746;35.664;139.738;2023-08-21T06:35:53;99735.81;;;61.57;13.43
9415;BME280;4746;35.664;139.738;2023-08-21T06:38:21;99732.84;;;61.99;12.58
9415;BME280;4746;35.664;139.738;2023-08-21T06:40:48;99721.00;;;62.31;12.15
9415;BME280;4746;35.664;139.738;2023-08-21T06:43:18;99719.34;;;62.59;12.67
9415;BME280;4746;35.664;139.738;2023-08-21T06:45:45;99730.06;;;62.20;12.90
9415;BME280;4746;35.664;139.738;2023-08-21T06:48:13;99738.84;;;61.72;12.98
9415;BME280;4746;35.664;139.738;2023-08-21T06:50:41;99727.94;;;60.88;13.44
9415;BME280;4746;35.664;139.738;2023-08-21T06:53:08;99726.81;;;60.38;13.74
9415;BME280;4746;35.664;139.738;2023-08-21T06:55:36;99704.78;;;59.69;14.64
9415;BME280;4746;35.664;139.738;2023-08-21T06:58:03;99710.81;;;58.89;15.35
9415;BME280;4746;35.664;139.738;2023-08-21T07:00:31;99710.09;;;58.26;16.05
9415;BME280;4746;35.664;139.738;2023-08-21T07:03:01;99697.44;;;57.71;16.07
9415;BME280;4746;35.664;139.738;2023-08-21T07:05:30;99680.88;;;57.31;16.50
9415;BME280;4746;35.664;139.738;2023-08-21T07:07:57;99678.78;;;57.23;16.37
9415;BME280;4746;35.664;139.738;2023-08-21T07:10:25;99679.63;;;57.24;16.92
9415;BME280;4746;35.664;139.738;2023-08-21T07:12:56;99688.94;;;56.96;16.91
9415;BME280;4746;35.664;139.738;2023-08-21T07:15:26;99688.81;;;56.32;17.33
9415;BME280;4746;35.664;139.738;2023-08-21T07:17:54;99685.09;;;55.58;18.21
9415;BME280;4746;35.664;139.738;2023-08-21T07:20:23;99679.81;;;54.77;19.07
9415;BME280;4746;35.664;139.738;2023-08-21T07:22:50;99679.88;;;53.71;19.96
9415;BME280;4746;35.664;139.738;2023-08-21T07:25:18;99683.50;;;52.67;20.89
9415;BME280;4746;35.664;139.738;2023-08-21T07:27:45;99704.38;;;51.97;21.80
9415;BME280;4746;35.664;139.738;2023-08-21T07:30:15;99689.00;;;51.08;22.55
9415;BME280;4746;35.664;139.738;2023-08-21T07:32:45;99701.88;;;50.08;23.91
9415;BME280;4746;35.664;139.738;2023-08-21T07:35:13;99695.13;;;49.35;24.66
9415;BME280;4746;35.664;139.738;2023-08-21T07:37:45;99711.81;;;49.22;25.22
9415;BME280;4746;35.664;139.738;2023-08-21T07:40:15;99708.09;;;49.82;24.87
9415;BME280;4746;35.664;139.738;2023-08-21T07:42:44;99714.19;;;50.31;24.09
9415;BME280;4746;35.664;139.738;2023-08-21T07:45:36;99719.34;;;50.28;24.29
9415;BME280;4746;35.664;139.738;2023-08-21T07:48:36;99716.94;;;49.35;25.17
9415;BME280;4746;35.664;139.738;2023-08-21T07:51:25;99725.13;;;49.51;24.75
9415;BME280;4746;35.664;139.738;2023-08-21T07:54:14;99728.59;;;50.27;24.12
9415;BME280;4746;35.664;139.738;2023-08-21T07:56:47;99727.72;;;50.00;24.63
9415;BME280;4746;35.664;139.738;2023-08-21T07:59:45;99732.75;;;49.70;24.78
9415;BME280;4746;35.664;139.738;2023-08-21T08:02:13;99721.78;;;49.33;25.08
9415;BME280;4746;35.664;139.738;2023-08-21T08:05:10;99733.09;;;48.92;25.57
9415;BME280;4746;35.664;139.738;2023-08-21T08:08:03;99730.91;;;48.61;26.01
9415;BME280;4746;35.664;139.738;2023-08-21T08:11:02;99730.47;;;48.13;26.60
9415;BME280;4746;35.664;139.738;2023-08-21T08:13:46;99736.34;;;47.48;27.19
9415;BME280;4746;35.664;139.738;2023-08-21T08:16:14;99744.44;;;46.73;27.93
9415;BME280;4746;35.664;139.738;2023-08-21T08:18:43;99739.81;;;45.91;28.50
9415;BME280;4746;35.664;139.738;2023-08-21T08:21:11;99742.81;;;45.16;30.09
9415;BME280;4746;35.664;139.738;2023-08-21T08:23:41;99734.94;;;44.47;31.15
9415;BME280;4746;35.664;139.738;2023-08-21T08:26:09;99750.53;;;43.82;32.27
9415;BME280;4746;35.664;139.738;2023-08-21T08:28:37;99760.94;;;43.07;33.20
9415;BME280;4746;35.664;139.738;2023-08-21T08:31:05;99766.13;;;42.36;34.29
9415;BME280;4746;35.664;139.738;2023-08-21T08:33:33;99763.09;;;41.78;35.15
9415;BME280;4746;35.664;139.738;2023-08-21T08:36:01;99764.47;;;41.20;36.25
9415;BME280;4746;35.664;139.738;2023-08-21T08:38:28;99766.34;;;40.77;36.52
9415;BME280;4746;35.664;139.738;2023-08-21T08:40:57;99762.84;;;40.48;36.95
9415;BME280;4746;35.664;139.738;2023-08-21T08:43:28;99763.53;;;40.21;37.25
9415;BME280;4746;35.664;139.738;2023-08-21T08:45:58;99771.44;;;39.94;38.17
9415;BME280;4746;35.664;139.738;2023-08-21T08:48:29;99769.19;;;39.69;38.32
9415;BME280;4746;35.664;139.738;2023-08-21T08:50:57;99771.63;;;39.41;39.80
9415;BME280;4746;35.664;139.738;2023-08-21T08:53:27;99779.41;;;39.14;40.38
9415;BME280;4746;35.664;139.738;2023-08-21T08:55:57;99781.47;;;38.82;41.16
9415;BME280;4746;35.664;139.738;2023-08-21T08:58:24;99778.25;;;38.56;41.87
9415;BME280;4746;35.664;139.738;2023-08-21T09:00:52;99783.94;;;38.30;42.12
9415;BME280;4746;35.664;139.738;2023-08-21T09:03:20;99804.25;;;38.09;43.48
9415;BME280;4746;35.664;139.738;2023-08-21T09:05:47;99803.13;;;37.88;43.69
9415;BME280;4746;35.664;139.738;2023-08-21T09:08:17;99798.66;;;37.72;43.84
9415;BME280;4746;35.664;139.738;2023-08-21T09:10:44;99812.16;;;37.55;44.79
9415;BME280;4746;35.664;139.738;2023-08-21T09:13:18;99826.25;;;37.41;44.99
9415;BME280;4746;35.664;139.738;2023-08-21T09:15:54;99824.56;;;37.32;45.21
9415;BME280;4746;35.664;139.738;2023-08-21T09:18:25;99827.72;;;37.20;45.40
9415;BME280;4746;35.664;139.738;2023-08-21T09:20:56;99834.22;;;37.17;45.78
9415;BME280;4746;35.664;139.738;2023-08-21T09:23:28;99835.06;;;37.10;46.08
9415;BME280;4746;35.664;139.738;2023-08-21T09:25:56;99845.44;;;37.05;46.14
9415;BME280;4746;35.664;139.738;2023-08-21T09:28:24;99838.88;;;36.99;46.40
9415;BME280;4746;35.664;139.738;2023-08-21T09:30:54;99837.22;;;36.98;46.57
9415;BME280;4746;35.664;139.738;2023-08-21T09:33:24;99837.38;;;36.97;46.71
9415;BME280;4746;35.664;139.738;2023-08-21T09:36:00;99836.72;;;37.03;46.83
9415;BME280;4746;35.664;139.738;2023-08-21T09:38:36;99825.66;;;36.90;46.84
9415;BME280;4746;35.664;139.738;2023-08-21T09:41:05;99834.66;;;36.81;47.35
9415;BME280;4746;35.664;139.738;2023-08-21T09:43:42;99833.63;;;36.74;47.29
9415;BME280;4746;35.664;139.738;2023-08-21T09:46:24;99830.25;;;36.64;47.34
9415;BME280;4746;35.664;139.738;2023-08-21T09:48:54;99845.56;;;36.54;48.10
9415;BME280;4746;35.664;139.738;2023-08-21T09:51:22;99849.59;;;36.50;48.31
9415;BME280;4746;35.664;139.738;2023-08-21T09:53:50;99851.72;;;36.47;48.54
9415;BME280;4746;35.664;139.738;2023-08-21T09:56:20;99860.56;;;36.39;48.57
9415;BME280;4746;35.664;139.738;2023-08-21T09:58:52;99859.00;;;36.37;48.65
9415;BME280;4746;35.664;139.738;2023-08-21T10:01:22;99876.31;;;36.33;49.56
9415;BME280;4746;35.664;139.738;2023-08-21T10:03:54;99870.34;;;36.31;49.20
9415;BME280;4746;35.664;139.738;2023-08-21T10:06:24;99875.16;;;36.27;49.31
9415;BME280;4746;35.664;139.738;2023-08-21T10:08:54;99873.47;;;36.26;49.47
9415;BME280;4746;35.664;139.738;2023-08-21T10:11:24;99874.63;;;36.24;49.90
9415;BME280;4746;35.664;139.738;2023-08-21T10:13:52;99883.78;;;36.21;50.08
9415;BME280;4746;35.664;139.738;2023-08-21T10:16:21;99885.09;;;36.17;49.69
9415;BME280;4746;35.664;139.738;2023-08-21T10:18:50;99888.38;;;36.11;49.99
9415;BME280;4746;35.664;139.738;2023-08-21T10:21:22;99884.91;;;36.11;50.01
9415;BME280;4746;35.664;139.738;2023-08-21T10:23:55;99888.72;;;36.08;50.41
9415;BME280;4746;35.664;139.738;2023-08-21T10:26:27;99887.72;;;36.09;49.81
9415;BME280;4746;35.664;139.738;2023-08-21T10:29:00;99893.38;;;36.07;49.88
9415;BME280;4746;35.664;139.738;2023-08-21T10:31:41;99893.06;;;36.09;50.30
9415;BME280;4746;35.664;139.738;2023-08-21T10:34:14;99889.72;;;36.08;50.21
9415;BME280;4746;35.664;139.738;2023-08-21T10:37:11;99903.75;;;36.09;50.29
9415;BME280;4746;35.664;139.738;2023-08-21T10:40:25;99908.22;;;36.09;49.94
9415;BME280;4746;35.664;139.738;2023-08-21T10:46:52;99916.03;;;36.03;50.12
9415;BME280;4746;35.664;139.738;2023-08-21T10:50:13;99921.53;;;36.01;50.34
9415;BME280;4746;35.664;139.738;2023-08-21T10:52:47;99922.16;;;35.95;50.83
9415;BME280;4746;35.664;139.738;2023-08-21T11:02:14;99928.66;;;35.93;50.61
9415;BME280;4746;35.664;139.738;2023-08-21T11:05:25;99937.59;;;35.92;50.82
9415;BME280;4746;35.664;139.738;2023-08-21T11:08:13;99938.75;;;35.89;50.77
9415;BME280;4746;35.664;139.738;2023-08-21T11:10:47;99942.22;;;35.82;51.36
9415;BME280;4746;35.664;139.738;2023-08-21T11:13:40;99944.25;;;35.88;50.89
9415;BME280;4746;35.664;139.738;2023-08-21T11:16:08;99941.50;;;35.80;51.76
9415;BME280;4746;35.664;139.738;2023-08-21T11:21:59;99960.88;;;35.82;51.15
9415;BME280;4746;35.664;139.738;2023-08-21T11:24:47;99956.69;;;35.79;51.92
9415;BME280;4746;35.664;139.738;2023-08-21T11:27:18;99962.78;;;35.72;51.75
9415;BME280;4746;35.664;139.738;2023-08-21T11:29:51;99964.47;;;35.73;51.42
9415;BME280;4746;35.664;139.738;2023-08-21T11:32:23;99965.59;;;35.70;52.00
9415;BME280;4746;35.664;139.738;2023-08-21T11:34:58;99965.75;;;35.69;52.41
9415;BME280;4746;35.664;139.738;2023-08-21T11:37:27;99966.91;;;35.66;52.23
9415;BME280;4746;35.664;139.738;2023-08-21T11:39:57;99969.41;;;35.68;52.24
9415;BME280;4746;35.664;139.738;2023-08-21T11:42:33;99969.09;;;35.71;51.98
9415;BME280;4746;35.664;139.738;2023-08-21T11:45:02;99975.44;;;35.70;51.96
9415;BME280;4746;35.664;139.738;2023-08-21T11:47:35;99974.13;;;35.74;51.83
9415;BME280;4746;35.664;139.738;2023-08-21T11:50:08;99992.00;;;35.73;51.73
9415;BME280;4746;35.664;139.738;2023-08-21T11:52:40;99976.44;;;35.69;52.25
9415;BME280;4746;35.664;139.738;2023-08-21T11:55:09;99979.94;;;35.69;52.14
9415;BME280;4746;35.664;139.738;2023-08-21T11:57:55;99986.94;;;35.70;51.48
9415;BME280;4746;35.664;139.738;2023-08-21T12:00:30;99978.72;;;35.64;52.14
9415;BME280;4746;35.664;139.738;2023-08-21T12:03:01;99981.16;;;35.57;51.74
9415;BME280;4746;35.664;139.738;2023-08-21T12:05:33;99989.31;;;35.56;52.02
9415;BME280;4746;35.664;139.738;2023-08-21T12:08:04;99987.34;;;35.58;52.24
9415;BME280;4746;35.664;139.738;2023-08-21T12:10:31;99977.94;;;35.54;52.46
9415;BME280;4746;35.664;139.738;2023-08-21T12:12:59;99978.97;;;35.53;52.67
9415;BME280;4746;35.664;139.738;2023-08-21T12:15:27;99981.22;;;35.48;52.85
9415;BME280;4746;35.664;139.738;2023-08-21T12:17:54;99981.22;;;35.48;53.07
9415;BME280;4746;35.664;139.738;2023-08-21T12:20:22;99979.00;;;35.43;53.04
9415;BME280;4746;35.664;139.738;2023-08-21T12:22:50;99979.28;;;35.40;52.99
9415;BME280;4746;35.664;139.738;2023-08-21T12:25:17;99975.09;;;35.38;53.39
9415;BME280;4746;35.664;139.738;2023-08-21T12:27:45;99980.41;;;35.38;53.65
9415;BME280;4746;35.664;139.738;2023-08-21T12:30:13;99971.06;;;35.34;53.46
9415;BME280;4746;35.664;139.738;2023-08-21T12:32:41;99969.53;;;35.32;53.77
9415;BME280;4746;35.664;139.738;2023-08-21T12:35:09;99970.69;;;35.29;53.28
9415;BME280;4746;35.664;139.738;2023-08-21T12:37:39;99977.66;;;35.30;53.74
9415;BME280;4746;35.664;139.738;2023-08-21T12:40:07;99960.00;;;35.29;54.17
9415;BME280;4746;35.664;139.738;2023-08-21T12:42:35;99961.16;;;35.27;54.23
9415;BME280;4746;35.664;139.738;2023-08-21T12:45:04;99968.13;;;35.28;53.89
9415;BME280;4746;35.664;139.738;2023-08-21T12:47:32;99969.97;;;35.27;54.33
9415;BME280;4746;35.664;139.738;2023-08-21T12:50:00;99959.31;;;35.27;54.49
9415;BME280;4746;35.664;139.738;2023-08-21T12:52:30;99968.69;;;35.31;53.88
9415;BME280;4746;35.664;139.738;2023-08-21T12:54:57;99952.69;;;35.31;53.99
9415;BME280;4746;35.664;139.738;2023-08-21T12:57:26;99959.41;;;35.35;54.16
9415;BME280;4746;35.664;139.738;2023-08-21T12:59:56;99956.44;;;35.38;54.21
9415;BME280;4746;35.664;139.738;2023-08-21T13:02:23;99956.28;;;35.39;54.14
9415;BME280;4746;35.664;139.738;2023-08-21T13:04:51;99964.44;;;35.38;54.43
9415;BME280;4746;35.664;139.738;2023-08-21T13:07:18;99961.06;;;35.36;54.75
9415;BME280;4746;35.664;139.738;2023-08-21T13:09:46;99964.59;;;35.36;54.86
9415;BME280;4746;35.664;139.738;2023-08-21T13:12:15;99962.59;;;35.38;54.59
9415;BME280;4746;35.664;139.738;2023-08-21T13:14:43;99961.06;;;35.36;54.43
9415;BME280;4746;35.664;139.738;2023-08-21T13:17:12;99964.44;;;35.38;54.79
9415;BME280;4746;35.664;139.738;2023-08-21T13:19:40;99963.44;;;35.39;54.98
9415;BME280;4746;35.664;139.738;2023-08-21T13:22:07;99964.44;;;35.38;54.87
9415;BME280;4746;35.664;139.738;2023-08-21T13:24:35;99961.91;;;35.36;55.12
9415;BME280;4746;35.664;139.738;2023-08-21T13:27:03;99966.72;;;35.33;55.03
9415;BME280;4746;35.664;139.738;2023-08-21T13:29:30;99961.66;;;35.30;54.70
9415;BME280;4746;35.664;139.738;2023-08-21T13:31:57;99966.63;;;35.25;55.22
9415;BME280;4746;35.664;139.738;2023-08-21T13:34:25;99959.22;;;35.19;55.33
9415;BME280;4746;35.664;139.738;2023-08-21T13:36:53;99966.66;;;35.16;55.50
9415;BME280;4746;35.664;139.738;2023-08-21T13:39:20;99976.66;;;35.14;55.46